Accueil
METAR-TAF:

METAR-TAF

Aéroports :

Gibraltar, Gibraltar

Aéroport international de Gibraltar

latitude: 36-09N, longitude: 005-21W, altitude: 5 m

Observation

Le bulletin a été fait il y a 12 minutes, à 18:50 UTC
Vent 8 kt de est
Température 17°C
Humidité 88%
Pression 1014 hPa
Visibilité 10 km ou plus
Quelques nuages à une hauteur de 1100 ft
Nuages épars à une hauteur de 25000 ft

METAR: LXGB 241850Z 10008KT 9999 FEW011 SCT250 17/15 Q1014 NOSIG

Heure: 21:02 (19:02 UTC)

Prévision

Le bulletin a été fait il y a 2 heures et 38 minutes, à 16:24 UTC
Prévision valable du 24 à 18 UTC au 24 à 22 UTC
Vent 9 kt de est
Visibilité 10 km ou plus
Quelques nuages à une hauteur de 1000 ft
Probabilité 30% :
Temporairement
du 24 à 18 UTC au 24 à 22 UTC
Nuages épars à une hauteur de 1000 ft

TAF: LXGB 241624Z 2418/2422 10009KT 9999 FEW010 PROB30 TEMPO 2418/2422 SCT010

Observations et prévisions météorologiques de plus de 4000 aéroports (messages METAR et TAF).

Les stations disponibles sont représentées par des disques jaunes et rouges sur la carte.

Passer la souris dessus pour voir le nom de la station.

Cliquer dessus pour voir les observations et prévisions météorologiques.

Pour changer de carte: cliquez sur les boutons verts avec une croix noire pour zoomer, sur le bouton vert avec un tiret pour effectuer un zoom arrière, ou sur les flèches vertes pour les cartes adjacentes.


METAR-TAF: